createdAt,value
2023-03-27T00:01:16.219Z,101199.75
2023-03-27T00:03:17.836Z,101196.22
2023-03-27T00:05:20.781Z,101210.13
2023-03-27T00:07:22.672Z,101208.34
2023-03-27T00:09:25.905Z,101212.66
2023-03-27T00:11:28.357Z,101215.25
2023-03-27T00:13:30.390Z,101215.25
2023-03-27T00:15:33.902Z,101221.28
2023-03-27T00:17:35.504Z,101219.47
2023-03-27T00:19:36.974Z,101223.75
2023-03-27T00:21:38.447Z,101222.84
2023-03-27T00:23:40.523Z,101220.19
2023-03-27T00:25:42.290Z,101227.13
2023-03-27T00:27:44.942Z,101230.56
2023-03-27T00:29:46.389Z,101234.91
2023-03-27T00:31:48.029Z,101232.28
2023-03-27T00:33:49.479Z,101236.56
2023-03-27T00:35:51.825Z,101238.25
2023-03-27T00:37:53.828Z,101231.25
2023-03-27T00:39:55.771Z,101232.97
2023-03-27T00:41:57.293Z,101229.47
2023-03-27T00:43:58.965Z,101240.72
2023-03-27T00:46:22.798Z,101243.31
2023-03-27T00:48:25.742Z,101251.06
2023-03-27T00:50:37.708Z,101250.19
2023-03-27T00:52:41.793Z,101245.00
2023-03-27T00:54:44.632Z,101244.19
2023-03-27T00:56:46.188Z,101251.19
2023-03-27T00:58:52.685Z,101247.72
2023-03-27T01:00:56.310Z,101249.47
2023-03-27T01:03:01.049Z,101259.00
2023-03-27T01:05:02.867Z,101258.94
2023-03-27T01:07:06.864Z,101263.25
2023-03-27T01:09:09.386Z,101266.66
2023-03-27T01:11:11.519Z,101266.63
2023-03-27T01:13:36.481Z,101265.72
2023-03-27T01:15:47.822Z,101264.78
2023-03-27T01:18:30.710Z,101269.97
2023-03-27T01:20:47.368Z,101269.94
2023-03-27T01:23:35.842Z,101274.22
2023-03-27T01:25:57.272Z,101280.25
2023-03-27T01:28:36.931Z,101280.22
2023-03-27T01:30:40.260Z,101275.88
2023-03-27T01:32:56.726Z,101286.34
2023-03-27T01:35:35.526Z,101282.88
2023-03-27T01:38:07.022Z,101289.84
2023-03-27T01:40:21.325Z,101281.19
2023-03-27T01:42:25.800Z,101274.25
2023-03-27T01:45:04.139Z,101288.16
2023-03-27T01:47:30.677Z,101284.66
2023-03-27T01:49:40.028Z,101287.25
2023-03-27T01:51:50.060Z,101293.34
2023-03-27T01:54:13.780Z,101288.97
2023-03-27T01:56:32.726Z,101298.53
2023-03-27T01:58:46.163Z,101302.88
2023-03-27T02:00:53.598Z,101303.72
2023-03-27T02:03:26.635Z,101298.53
2023-03-27T02:06:01.699Z,101309.78
2023-03-27T02:08:15.483Z,101313.28
2023-03-27T02:10:25.197Z,101315.00
2023-03-27T02:12:33.283Z,101315.03
2023-03-27T02:14:46.342Z,101311.59
2023-03-27T02:16:54.236Z,101310.66
2023-03-27T02:19:05.042Z,101321.91
2023-03-27T02:21:06.826Z,101315.88
2023-03-27T02:23:08.384Z,101320.22
2023-03-27T02:25:26.529Z,101321.13
2023-03-27T02:27:42.559Z,101331.50
2023-03-27T02:29:56.337Z,101321.06
2023-03-27T02:32:19.127Z,101318.44
2023-03-27T02:34:26.411Z,101330.56
2023-03-27T02:36:55.053Z,101332.31
2023-03-27T02:39:20.349Z,101330.56
2023-03-27T02:41:41.804Z,101336.59
2023-03-27T02:43:59.408Z,101337.44
2023-03-27T02:46:14.863Z,101340.91
2023-03-27T02:48:34.269Z,101345.19
2023-03-27T02:50:52.075Z,101341.72
2023-03-27T02:52:58.727Z,101349.53
2023-03-27T02:55:09.262Z,101348.63
2023-03-27T02:57:15.919Z,101359.91
2023-03-27T02:59:25.484Z,101355.47
2023-03-27T03:01:30.592Z,101365.91
2023-03-27T03:03:48.940Z,101371.06
2023-03-27T03:05:52.042Z,101375.41
2023-03-27T03:07:54.406Z,101371.94
2023-03-27T03:09:56.046Z,101381.50
2023-03-27T03:11:58.024Z,101380.63
2023-03-27T03:13:59.581Z,101381.50
2023-03-27T03:16:01.167Z,101382.38
2023-03-27T03:18:02.686Z,101385.81
2023-03-27T03:20:05.725Z,101387.53
2023-03-27T03:22:07.978Z,101388.41
2023-03-27T03:24:10.378Z,101384.94
2023-03-27T03:26:12.231Z,101388.34
2023-03-27T03:28:13.955Z,101383.13
2023-03-27T03:30:17.456Z,101392.72
2023-03-27T03:32:19.260Z,101390.94
2023-03-27T03:34:22.487Z,101390.94
2023-03-27T03:36:23.985Z,101393.50
2023-03-27T03:38:26.439Z,101394.34
2023-03-27T03:40:27.909Z,101396.91
2023-03-27T03:42:29.351Z,101396.88
2023-03-27T03:44:31.333Z,101403.81
2023-03-27T03:46:33.006Z,101407.25
2023-03-27T03:48:34.517Z,101420.28
2023-03-27T03:50:35.973Z,101415.06
2023-03-27T03:52:37.824Z,101410.72
2023-03-27T03:54:40.357Z,101418.53
2023-03-27T03:56:41.918Z,101422.81
2023-03-27T03:58:44.101Z,101424.53
2023-03-27T04:00:47.097Z,101420.16
2023-03-27T04:02:53.917Z,101425.31
2023-03-27T04:04:59.796Z,101430.50
2023-03-27T04:07:01.269Z,101421.75
2023-03-27T04:09:02.803Z,101430.38
2023-03-27T04:11:05.070Z,101424.28
2023-03-27T04:13:06.799Z,101432.94
2023-03-27T04:15:09.334Z,101427.72
2023-03-27T04:17:11.444Z,101436.34
2023-03-27T04:19:13.033Z,101439.78
2023-03-27T04:21:14.850Z,101442.34
2023-03-27T04:23:20.152Z,101446.66
2023-03-27T04:25:24.522Z,101450.13
2023-03-27T04:27:30.417Z,101458.78
2023-03-27T04:29:31.924Z,101462.31
2023-03-27T04:31:34.594Z,101467.53
2023-03-27T04:33:46.310Z,101470.06
2023-03-27T04:36:06.873Z,101471.78
2023-03-27T04:38:09.179Z,101473.50
2023-03-27T04:40:17.976Z,101476.94
2023-03-27T04:42:23.463Z,101477.75
2023-03-27T04:44:25.000Z,101485.53
2023-03-27T04:46:26.558Z,101485.53
2023-03-27T04:48:29.700Z,101493.28
2023-03-27T04:50:31.796Z,101491.47
2023-03-27T04:52:33.625Z,101496.63
2023-03-27T04:54:35.761Z,101495.72
2023-03-27T04:56:37.256Z,101500.03
2023-03-27T04:58:41.456Z,101498.25
2023-03-27T05:00:43.840Z,101486.06
2023-03-27T05:02:47.621Z,101491.28
2023-03-27T05:04:49.314Z,101494.78
2023-03-27T05:06:50.815Z,101498.22
2023-03-27T05:08:52.384Z,101492.97
2023-03-27T05:10:54.049Z,101498.06
2023-03-27T05:12:57.895Z,101497.97
2023-03-27T05:15:00.552Z,101499.63
2023-03-27T05:17:02.395Z,101502.97
2023-03-27T05:19:03.875Z,101509.00
2023-03-27T05:21:05.632Z,101509.81
2023-03-27T05:23:07.362Z,101512.41
2023-03-27T05:25:09.400Z,101508.03
2023-03-27T05:27:10.897Z,101519.25
2023-03-27T05:29:12.415Z,101519.25
2023-03-27T05:31:13.963Z,101523.56
2023-03-27T05:33:17.538Z,101520.06
2023-03-27T05:35:22.534Z,101517.50
2023-03-27T05:37:25.449Z,101520.13
2023-03-27T05:39:28.502Z,101518.41
2023-03-27T05:41:30.299Z,101524.50
2023-03-27T05:43:32.168Z,101522.84
2023-03-27T05:45:34.018Z,101522.88
2023-03-27T05:47:44.584Z,101522.94
2023-03-27T05:49:46.068Z,101529.91
2023-03-27T05:51:47.897Z,101530.00
2023-03-27T05:53:49.345Z,101530.09
2023-03-27T05:55:50.830Z,101542.31
2023-03-27T05:58:06.564Z,101538.91
2023-03-27T06:00:11.652Z,101545.13
2023-03-27T06:02:14.190Z,101540.88
2023-03-27T06:04:17.970Z,101552.22
2023-03-27T06:06:19.595Z,101552.31
2023-03-27T06:08:21.074Z,101552.41
2023-03-27T06:10:22.575Z,101555.97
2023-03-27T06:12:24.857Z,101559.50
2023-03-27T06:14:26.477Z,101562.25
2023-03-27T06:16:28.315Z,101568.41
2023-03-27T06:18:29.830Z,101566.78
2023-03-27T06:20:31.565Z,101578.16
2023-03-27T06:22:33.047Z,101574.81
2023-03-27T06:24:34.544Z,101574.88
2023-03-27T06:26:36.064Z,101578.47
2023-03-27T06:28:39.166Z,101587.22
2023-03-27T06:30:40.673Z,101582.09
2023-03-27T06:32:47.629Z,101583.03
2023-03-27T06:34:50.171Z,101581.38
2023-03-27T06:36:51.631Z,101592.66
2023-03-27T06:38:54.379Z,101590.03
2023-03-27T06:40:56.175Z,101591.00
2023-03-27T06:43:06.391Z,101592.00
2023-03-27T06:45:09.427Z,101602.56
2023-03-27T06:47:10.993Z,101608.72
2023-03-27T06:49:12.507Z,101609.78
2023-03-27T06:51:14.084Z,101632.56
2023-03-27T06:53:26.702Z,101635.38
2023-03-27T06:55:31.742Z,101648.56
2023-03-27T06:57:33.240Z,101646.78
2023-03-27T06:59:34.715Z,101651.03
2023-03-27T07:01:36.228Z,101644.81
2023-03-27T07:03:38.656Z,101644.75
2023-03-27T07:05:41.066Z,101650.69
2023-03-27T07:07:43.408Z,101643.47
2023-03-27T07:09:44.967Z,101638.88
2023-03-27T07:11:46.553Z,101636.06
2023-03-27T07:13:48.021Z,101639.34
2023-03-27T07:15:49.489Z,101640.88
2023-03-27T07:17:59.725Z,101643.50
2023-03-27T07:20:01.330Z,101647.91
2023-03-27T07:22:02.837Z,101645.50
2023-03-27T07:24:04.515Z,101649.13
2023-03-27T07:26:06.747Z,101644.97
2023-03-27T07:28:13.253Z,101640.78
2023-03-27T07:30:15.025Z,101645.38
2023-03-27T07:32:29.755Z,101651.69
2023-03-27T07:34:38.567Z,101645.78
2023-03-27T07:36:40.068Z,101651.22
2023-03-27T07:38:42.195Z,101644.50
2023-03-27T07:40:46.050Z,101649.88
2023-03-27T07:42:49.648Z,101643.97
2023-03-27T07:44:51.522Z,101638.03
2023-03-27T07:46:53.269Z,101649.56
2023-03-27T07:48:56.651Z,101660.16
2023-03-27T07:51:10.689Z,101658.53
2023-03-27T07:53:33.513Z,101653.47
2023-03-27T07:55:37.943Z,101650.16
2023-03-27T07:57:57.998Z,101653.69
2023-03-27T08:00:04.140Z,101648.56
2023-03-27T08:02:05.738Z,101652.16
2023-03-27T08:04:07.412Z,101663.53
2023-03-27T08:06:09.260Z,101669.69
2023-03-27T08:08:11.209Z,101661.00
2023-03-27T08:10:13.731Z,101666.34
2023-03-27T08:12:15.669Z,101670.78
2023-03-27T08:14:17.343Z,101669.06
2023-03-27T08:16:19.563Z,101672.56
2023-03-27T08:18:21.114Z,101672.56
2023-03-27T08:20:24.037Z,101660.38
2023-03-27T08:22:25.880Z,101665.63
2023-03-27T08:24:27.328Z,101669.19
2023-03-27T08:26:28.841Z,101670.06
2023-03-27T08:28:32.564Z,101667.44
2023-03-27T08:30:35.330Z,101674.50
2023-03-27T08:32:38.638Z,101672.78
2023-03-27T08:34:40.931Z,101670.25
2023-03-27T08:36:42.417Z,101685.97
2023-03-27T08:38:45.096Z,101685.13
2023-03-27T08:40:52.263Z,101681.72
2023-03-27T08:42:58.358Z,101679.19
2023-03-27T08:45:09.247Z,101687.94
2023-03-27T08:47:19.517Z,101688.88
2023-03-27T08:49:22.191Z,101690.69
2023-03-27T08:51:33.240Z,101697.69
2023-03-27T08:53:43.813Z,101689.94
2023-03-27T08:55:46.185Z,101700.53
2023-03-27T08:57:50.246Z,101706.69
2023-03-27T08:59:57.675Z,101745.06
2023-03-27T09:02:15.787Z,101761.97
2023-03-27T09:04:37.752Z,101765.44
2023-03-27T09:07:02.395Z,101766.44
2023-03-27T09:09:24.291Z,101752.81
2023-03-27T09:11:48.478Z,101754.47
2023-03-27T09:13:51.908Z,101753.56
2023-03-27T09:16:02.357Z,101752.81
2023-03-27T09:18:07.105Z,101751.13
2023-03-27T09:20:19.162Z,101773.50
2023-03-27T09:22:27.549Z,101769.66
2023-03-27T09:24:58.035Z,101766.47
2023-03-27T09:27:11.717Z,101767.09
2023-03-27T09:29:22.268Z,101775.69
2023-03-27T09:31:29.137Z,101772.88
2023-03-27T09:33:31.210Z,101768.47
2023-03-27T09:35:35.324Z,101764.97
2023-03-27T09:37:37.114Z,101762.28
2023-03-27T09:39:42.726Z,101770.13
2023-03-27T09:41:51.088Z,101766.66
2023-03-27T09:44:03.410Z,101771.88
2023-03-27T09:46:06.376Z,101773.66
2023-03-27T09:48:15.029Z,101771.16
2023-03-27T09:50:31.431Z,101761.94
2023-03-27T09:52:34.595Z,101770.06
2023-03-27T09:54:53.760Z,101766.13
2023-03-27T09:57:03.463Z,101769.03
2023-03-27T09:59:13.320Z,101771.00
2023-03-27T10:01:17.601Z,101771.31
2023-03-27T10:03:21.039Z,101768.91
2023-03-27T10:05:23.115Z,101770.81
2023-03-27T10:07:25.852Z,101774.47
2023-03-27T10:09:34.498Z,101771.25
2023-03-27T10:11:36.271Z,101766.25
2023-03-27T10:13:43.467Z,101771.63
2023-03-27T10:15:45.027Z,101774.44
2023-03-27T10:17:49.112Z,101763.28
2023-03-27T10:19:58.045Z,101758.19
2023-03-27T10:22:09.145Z,101764.53
2023-03-27T10:24:26.148Z,101762.97
2023-03-27T10:26:30.722Z,101761.34
2023-03-27T10:28:36.726Z,101765.06
2023-03-27T10:30:38.287Z,101753.00
2023-03-27T10:32:47.612Z,101749.75
2023-03-27T10:34:58.099Z,101749.97
2023-03-27T10:37:01.601Z,101762.31
2023-03-27T10:39:14.571Z,101759.53
2023-03-27T10:41:28.635Z,101760.22
2023-03-27T10:43:37.333Z,101760.94
2023-03-27T10:45:56.688Z,101763.50
2023-03-27T10:48:01.646Z,101761.84
2023-03-27T10:50:06.854Z,101770.78
2023-03-27T10:52:19.543Z,101769.13
2023-03-27T10:55:04.562Z,101769.28
2023-03-27T10:57:26.764Z,101788.59
2023-03-27T11:00:01.370Z,101797.28
2023-03-27T11:02:18.826Z,101791.00
2023-03-27T11:04:39.410Z,101803.06
2023-03-27T11:06:43.855Z,101798.41
2023-03-27T11:08:55.310Z,101800.00
2023-03-27T11:11:05.097Z,101803.69
2023-03-27T11:13:30.395Z,101803.97
2023-03-27T11:15:43.653Z,101809.59
2023-03-27T11:17:57.219Z,101798.50
2023-03-27T11:20:07.196Z,101811.81
2023-03-27T11:22:20.315Z,101801.41
2023-03-27T11:24:44.068Z,101815.47
2023-03-27T11:27:02.003Z,101824.19
2023-03-27T11:29:16.976Z,101810.97
2023-03-27T11:31:34.338Z,101810.84
2023-03-27T11:33:44.929Z,101818.72
2023-03-27T11:35:54.132Z,101819.56
2023-03-27T11:38:08.372Z,101817.75
2023-03-27T11:40:29.109Z,101806.06
2023-03-27T11:42:33.404Z,101806.47
2023-03-27T11:44:34.907Z,101805.34
2023-03-27T11:46:48.912Z,101803.72
2023-03-27T11:48:50.864Z,101808.78
2023-03-27T11:51:10.088Z,101805.41
2023-03-27T11:53:38.071Z,101817.41
2023-03-27T11:55:58.757Z,101816.06
2023-03-27T11:58:32.030Z,101815.38
2023-03-27T12:00:58.952Z,101822.41
2023-03-27T12:03:30.127Z,101838.19
2023-03-27T12:05:46.592Z,101850.53
2023-03-27T12:08:16.795Z,101867.16
2023-03-27T12:10:30.649Z,101883.75
2023-03-27T12:13:00.716Z,101878.34
2023-03-27T12:15:02.134Z,101889.59
2023-03-27T12:17:39.358Z,101891.22
2023-03-27T12:20:10.760Z,101876.22
2023-03-27T12:22:38.805Z,101887.50
2023-03-27T12:25:08.447Z,101864.13
2023-03-27T12:27:47.466Z,101862.59
2023-03-27T12:30:14.811Z,101864.47
2023-03-27T12:33:05.097Z,101857.53
2023-03-27T12:35:21.648Z,101856.66
2023-03-27T12:37:31.147Z,101849.66
2023-03-27T12:39:45.868Z,101842.56
2023-03-27T12:41:47.947Z,101846.09
2023-03-27T12:43:55.311Z,101838.19
2023-03-27T12:46:09.000Z,101832.94
2023-03-27T12:48:10.596Z,101841.69
2023-03-27T12:50:25.902Z,101831.09
2023-03-27T12:52:28.573Z,101831.78
2023-03-27T12:54:32.309Z,101833.47
2023-03-27T12:56:37.502Z,101827.41
2023-03-27T12:58:40.574Z,101838.06
2023-03-27T13:00:53.107Z,101842.56
2023-03-27T13:03:27.477Z,101843.47
2023-03-27T13:05:34.887Z,101854.91
2023-03-27T13:07:43.423Z,101859.28
2023-03-27T13:10:29.766Z,101868.81
2023-03-27T13:12:45.270Z,101870.44
2023-03-27T13:15:03.398Z,101874.69
2023-03-27T13:17:21.345Z,101873.81
2023-03-27T13:19:44.308Z,101874.75
2023-03-27T13:21:52.503Z,101867.84
2023-03-27T13:24:10.322Z,101873.19
2023-03-27T13:26:48.619Z,101868.84
2023-03-27T13:28:53.002Z,101877.66
2023-03-27T13:30:57.192Z,101868.91
2023-03-27T13:33:11.211Z,101870.66
2023-03-27T13:35:41.250Z,101875.03
2023-03-27T13:37:53.668Z,101877.72
2023-03-27T13:39:55.352Z,101878.53
2023-03-27T13:42:05.921Z,101868.91
2023-03-27T13:44:29.753Z,101868.88
2023-03-27T13:46:33.771Z,101877.63
2023-03-27T13:49:04.724Z,101883.81
2023-03-27T13:51:39.574Z,101871.53
2023-03-27T13:53:46.667Z,101882.94
2023-03-27T13:56:49.754Z,101879.44
2023-03-27T13:59:28.293Z,101876.78
2023-03-27T14:01:38.934Z,101883.84
2023-03-27T14:04:10.242Z,101882.94
2023-03-27T14:06:59.890Z,101886.38
2023-03-27T14:09:20.407Z,101871.41
2023-03-27T14:11:29.846Z,101882.72
2023-03-27T14:13:40.319Z,101886.19
2023-03-27T14:16:07.984Z,101885.31
2023-03-27T14:18:55.910Z,101895.94
2023-03-27T14:21:03.823Z,101893.34
2023-03-27T14:23:13.253Z,101898.56
2023-03-27T14:25:22.398Z,101903.84
2023-03-27T14:27:24.393Z,101892.44
2023-03-27T14:29:26.737Z,101891.47
2023-03-27T14:31:35.385Z,101901.03
2023-03-27T14:33:39.179Z,101895.66
2023-03-27T14:35:46.593Z,101901.69
2023-03-27T14:37:55.845Z,101911.25
2023-03-27T14:39:59.626Z,101902.50
2023-03-27T14:42:03.046Z,101905.16
2023-03-27T14:44:04.745Z,101904.28
2023-03-27T14:46:07.308Z,101910.44
2023-03-27T14:48:21.268Z,101904.31
2023-03-27T14:50:25.421Z,101907.88
2023-03-27T14:52:35.050Z,101910.59
2023-03-27T14:54:44.945Z,101909.84
2023-03-27T14:56:57.212Z,101918.72
2023-03-27T14:59:03.004Z,101922.28
2023-03-27T15:01:05.124Z,101917.03
2023-03-27T15:03:14.841Z,101910.00
2023-03-27T15:05:18.325Z,101912.63
2023-03-27T15:07:28.627Z,101922.28
2023-03-27T15:09:31.095Z,101915.28
2023-03-27T15:11:38.970Z,101922.34
2023-03-27T15:13:40.534Z,101915.34
2023-03-27T15:15:44.263Z,101910.06
2023-03-27T15:17:46.254Z,101924.91
2023-03-27T15:19:50.904Z,101923.09
2023-03-27T15:22:00.577Z,101948.44
2023-03-27T15:24:17.874Z,101946.59
2023-03-27T15:26:26.960Z,101956.13
2023-03-27T15:28:58.642Z,101955.97
2023-03-27T15:31:03.396Z,101966.50
2023-03-27T15:33:06.446Z,101962.22
2023-03-27T15:35:19.663Z,101953.50
2023-03-27T15:37:25.442Z,101955.31
2023-03-27T15:39:27.032Z,101971.13
2023-03-27T15:41:28.435Z,101951.88
2023-03-27T15:43:30.880Z,101953.69
2023-03-27T15:45:38.301Z,101959.81
2023-03-27T15:47:40.578Z,101962.47
2023-03-27T15:49:44.274Z,101960.75
2023-03-27T15:51:45.984Z,101963.44
2023-03-27T15:53:58.163Z,101967.81
2023-03-27T15:56:03.593Z,101966.03
2023-03-27T15:58:24.973Z,101969.50
2023-03-27T16:00:28.840Z,101966.91
2023-03-27T16:02:30.771Z,101962.53
2023-03-27T16:04:55.551Z,101973.94
2023-03-27T16:07:21.206Z,101970.41
2023-03-27T16:09:29.322Z,101973.91
2023-03-27T16:11:40.424Z,101977.41
2023-03-27T16:13:51.679Z,101971.28
2023-03-27T16:16:00.003Z,101974.81
2023-03-27T16:18:13.499Z,101974.88
2023-03-27T16:20:24.134Z,101980.13
2023-03-27T16:22:29.881Z,101988.03
2023-03-27T16:24:31.346Z,101985.34
2023-03-27T16:26:33.080Z,101985.28
2023-03-27T16:28:35.671Z,101982.59
2023-03-27T16:30:40.428Z,101992.13
2023-03-27T16:32:41.953Z,102013.09
2023-03-27T16:34:44.338Z,102019.31
2023-03-27T16:36:45.837Z,102028.75
2023-03-27T16:38:47.547Z,102011.69
2023-03-27T16:40:49.614Z,102009.56
2023-03-27T16:42:51.096Z,102016.31
2023-03-27T16:44:53.273Z,102008.28
2023-03-27T16:46:54.739Z,102015.13
2023-03-27T16:48:56.824Z,102020.28
2023-03-27T16:50:58.345Z,102019.50
2023-03-27T16:52:59.822Z,102013.41
2023-03-27T16:55:02.534Z,102016.13
2023-03-27T16:57:04.710Z,102014.41
2023-03-27T16:59:06.471Z,102008.44
2023-03-27T17:01:08.896Z,102021.59
2023-03-27T17:03:11.425Z,102021.50
2023-03-27T17:05:14.049Z,102023.16
2023-03-27T17:07:15.960Z,102019.59
2023-03-27T17:09:17.818Z,102023.06
2023-03-27T17:11:19.334Z,102028.19
2023-03-27T17:13:21.254Z,102023.66
2023-03-27T17:15:23.343Z,102023.63
2023-03-27T17:17:24.904Z,102033.94
2023-03-27T17:19:26.470Z,102039.97
2023-03-27T17:21:28.046Z,102040.81
2023-03-27T17:23:29.601Z,102046.03
2023-03-27T17:25:31.106Z,102046.81
2023-03-27T17:27:33.633Z,102053.78
2023-03-27T17:29:35.149Z,102050.25
2023-03-27T17:31:37.120Z,102050.16
2023-03-27T17:33:38.656Z,102049.28
2023-03-27T17:35:41.479Z,102050.06
2023-03-27T17:37:43.038Z,102058.75
2023-03-27T17:39:44.647Z,102056.19
2023-03-27T17:41:46.179Z,102068.44
2023-03-27T17:43:47.733Z,102065.88
2023-03-27T17:45:50.060Z,102061.50
2023-03-27T17:47:51.664Z,102069.41
2023-03-27T17:49:54.422Z,102072.00
2023-03-27T17:51:56.166Z,102069.38
2023-03-27T17:53:57.862Z,102077.28
2023-03-27T17:55:59.824Z,102069.34
2023-03-27T17:58:08.811Z,102073.56
2023-03-27T18:00:11.633Z,102067.38
2023-03-27T18:02:18.480Z,102079.47
2023-03-27T18:04:20.026Z,102068.88
2023-03-27T18:06:21.750Z,102071.41
2023-03-27T18:08:23.208Z,102073.13
2023-03-27T18:10:24.739Z,102071.31
2023-03-27T18:12:26.215Z,102081.75
2023-03-27T18:14:27.725Z,102084.34
2023-03-27T18:16:29.258Z,102092.19
2023-03-27T18:18:31.597Z,102108.84
2023-03-27T18:20:33.181Z,102114.09
2023-03-27T18:22:34.692Z,102120.19
2023-03-27T18:24:36.158Z,102117.47
2023-03-27T18:26:37.768Z,102114.56
2023-03-27T18:28:39.252Z,102115.19
2023-03-27T18:30:42.285Z,102116.72
2023-03-27T18:32:45.673Z,102109.63
2023-03-27T18:34:47.189Z,102112.97
2023-03-27T18:36:51.727Z,102108.47
2023-03-27T18:38:53.344Z,102104.97
2023-03-27T18:40:56.094Z,102110.19
2023-03-27T18:42:57.840Z,102108.34
2023-03-27T18:44:59.396Z,102117.00
2023-03-27T18:47:01.066Z,102110.00
2023-03-27T18:49:13.578Z,102105.63
2023-03-27T18:51:19.781Z,102114.28
2023-03-27T18:53:21.632Z,102108.97
2023-03-27T18:55:24.067Z,102113.38
2023-03-27T18:57:25.684Z,102113.38
2023-03-27T18:59:29.746Z,102106.31
2023-03-27T19:01:34.742Z,102108.09
2023-03-27T19:03:37.627Z,102108.13
2023-03-27T19:05:39.127Z,102102.03
2023-03-27T19:07:45.024Z,102106.44
2023-03-27T19:09:46.925Z,102106.44
2023-03-27T19:11:48.429Z,102107.25
2023-03-27T19:13:49.984Z,102105.53
2023-03-27T19:15:51.809Z,102111.66
2023-03-27T19:17:53.379Z,102103.94
2023-03-27T19:19:55.164Z,102115.28
2023-03-27T19:21:56.807Z,102111.78
2023-03-27T19:23:58.302Z,102113.50
2023-03-27T19:26:11.442Z,102112.63
2023-03-27T19:28:12.909Z,102123.97
2023-03-27T19:30:14.868Z,102121.34
2023-03-27T19:32:16.591Z,102115.28
2023-03-27T19:34:18.061Z,102123.94
2023-03-27T19:36:19.613Z,102117.84
2023-03-27T19:38:21.600Z,102115.25
2023-03-27T19:40:23.369Z,102118.78
2023-03-27T19:42:25.546Z,102118.88
2023-03-27T19:44:28.018Z,102116.25
2023-03-27T19:46:29.647Z,102126.69
2023-03-27T19:48:31.226Z,102120.63
2023-03-27T19:50:33.077Z,102120.63
2023-03-27T19:52:36.021Z,102116.25
2023-03-27T19:54:37.508Z,102118.84
2023-03-27T19:56:39.297Z,102127.56
2023-03-27T19:58:40.819Z,102132.78
2023-03-27T20:00:44.383Z,102134.56
2023-03-27T20:02:45.923Z,102163.34
2023-03-27T20:04:47.414Z,102170.38
2023-03-27T20:06:49.414Z,102153.75
2023-03-27T20:08:50.949Z,102155.31
2023-03-27T20:10:52.443Z,102147.31
2023-03-27T20:12:53.981Z,102143.59
2023-03-27T20:15:07.500Z,102139.00
2023-03-27T20:17:27.665Z,102137.84
2023-03-27T20:19:31.049Z,102133.44
2023-03-27T20:21:36.044Z,102133.38
2023-03-27T20:23:38.488Z,102144.63
2023-03-27T20:25:41.426Z,102138.44
2023-03-27T20:27:42.954Z,102143.59
2023-03-27T20:29:44.394Z,102138.38
2023-03-27T20:31:46.376Z,102141.88
2023-03-27T20:33:48.116Z,102141.84
2023-03-27T20:35:49.658Z,102149.78
2023-03-27T20:37:56.464Z,102146.44
2023-03-27T20:40:01.813Z,102149.94
2023-03-27T20:42:03.746Z,102135.13
2023-03-27T20:44:15.161Z,102135.09
2023-03-27T20:46:17.186Z,102135.06
2023-03-27T20:48:21.834Z,102141.09
2023-03-27T20:50:23.821Z,102158.53
2023-03-27T20:52:26.051Z,102169.97
2023-03-27T20:54:28.697Z,102169.13
2023-03-27T20:56:30.660Z,102189.09
2023-03-27T20:58:34.699Z,102177.75
2023-03-27T21:00:36.515Z,102160.25
2023-03-27T21:02:38.022Z,102145.31
2023-03-27T21:04:39.676Z,102150.41
2023-03-27T21:06:42.186Z,102159.81
2023-03-27T21:08:43.910Z,102159.78
2023-03-27T21:10:53.814Z,102166.78
2023-03-27T21:12:56.648Z,102170.31
2023-03-27T21:14:58.150Z,102184.38
2023-03-27T21:16:59.726Z,102185.06
2023-03-27T21:19:01.389Z,102181.31
2023-03-27T21:21:03.033Z,102175.03
2023-03-27T21:23:04.633Z,102184.44
2023-03-27T21:25:06.774Z,102191.31
2023-03-27T21:27:08.231Z,102190.38
2023-03-27T21:29:10.841Z,102191.19
2023-03-27T21:31:12.509Z,102189.28
2023-03-27T21:33:15.858Z,102193.50
2023-03-27T21:35:17.721Z,102190.91
2023-03-27T21:37:19.231Z,102190.06
2023-03-27T21:39:20.784Z,102192.75
2023-03-27T21:41:22.333Z,102187.53
2023-03-27T21:43:23.848Z,102184.06
2023-03-27T21:45:25.811Z,102184.06
2023-03-27T21:47:37.266Z,102186.56
2023-03-27T21:49:46.387Z,102187.47
2023-03-27T21:51:47.891Z,102190.00
2023-03-27T21:53:49.398Z,102180.41
2023-03-27T21:55:50.888Z,102179.50
2023-03-27T21:57:52.430Z,102183.88
2023-03-27T21:59:53.919Z,102183.94
2023-03-27T22:01:56.086Z,102178.69
2023-03-27T22:04:02.048Z,102185.56
2023-03-27T22:06:11.824Z,102194.28
2023-03-27T22:08:15.374Z,102194.28
2023-03-27T22:10:17.015Z,102194.28
2023-03-27T22:12:19.213Z,102195.22
2023-03-27T22:14:20.683Z,102195.13
2023-03-27T22:16:22.323Z,102192.44
2023-03-27T22:18:24.781Z,102204.56
2023-03-27T22:20:26.376Z,102203.75
2023-03-27T22:22:27.991Z,102201.19
2023-03-27T22:24:29.561Z,102203.78
2023-03-27T22:26:34.082Z,102205.56
2023-03-27T22:28:35.805Z,102210.72
2023-03-27T22:30:37.285Z,102215.06
2023-03-27T22:32:40.641Z,102215.91
2023-03-27T22:34:42.168Z,102225.56
2023-03-27T22:36:44.150Z,102250.13
2023-03-27T22:38:46.403Z,102265.03
2023-03-27T22:40:47.877Z,102273.69
2023-03-27T22:42:49.336Z,102272.03
2023-03-27T22:44:50.802Z,102262.28
2023-03-27T22:46:53.016Z,102233.16
2023-03-27T22:48:56.315Z,102249.38
2023-03-27T22:50:58.006Z,102245.75
2023-03-27T22:52:59.455Z,102244.84
2023-03-27T22:55:00.934Z,102242.16
2023-03-27T22:57:02.481Z,102245.50
2023-03-27T22:59:04.010Z,102245.50
2023-03-27T23:01:05.948Z,102251.66
2023-03-27T23:03:07.574Z,102255.09
2023-03-27T23:05:09.444Z,102268.16
2023-03-27T23:07:10.980Z,102274.31
2023-03-27T23:09:12.481Z,102296.03
2023-03-27T23:11:14.277Z,102268.47
2023-03-27T23:13:15.773Z,102271.91
2023-03-27T23:15:17.334Z,102262.16
2023-03-27T23:17:31.877Z,102265.31
2023-03-27T23:19:33.371Z,102272.84
2023-03-27T23:21:34.859Z,102271.88
2023-03-27T23:23:38.332Z,102281.41
2023-03-27T23:25:42.197Z,102277.06
2023-03-27T23:27:43.749Z,102275.25
2023-03-27T23:29:45.796Z,102276.88
2023-03-27T23:31:47.437Z,102277.72
2023-03-27T23:33:51.064Z,102278.59
2023-03-27T23:35:54.372Z,102277.72
2023-03-27T23:37:55.917Z,102286.34
2023-03-27T23:39:57.409Z,102289.81
2023-03-27T23:41:58.862Z,102288.88
2023-03-27T23:44:00.358Z,102287.84
2023-03-27T23:46:02.232Z,102290.41
2023-03-27T23:48:03.997Z,102292.09
2023-03-27T23:50:06.181Z,102296.41
2023-03-27T23:52:07.653Z,102296.44
2023-03-27T23:54:09.106Z,102305.19
2023-03-27T23:56:10.668Z,102307.84
2023-03-27T23:58:12.197Z,102305.34
